NATURA VA

BIENVENIDO A NATURA VA Buscando el máximo realismo



 METAR AND TAF INFORMATION
METAR FOR GCLA
GCLA 201730Z 03011KT 350V070 9999 FEW035 SCT045 22/14 Q1021

TAF GCLA 201400Z 2015/2115 03012KT 9999 SCT035 TX23/2114Z TN19/2106Z
TEMPO 2020/2115 33008KT

 AIRPORT MAP

 RUNWAY INFORMATION